createdAt,value
2023-04-03T00:00:39.351Z,2.20
2023-04-03T00:01:41.570Z,2.47
2023-04-03T00:02:43.351Z,2.40
2023-04-03T00:03:45.069Z,2.63
2023-04-03T00:04:46.658Z,2.13
2023-04-03T00:05:48.492Z,2.27
2023-04-03T00:06:50.202Z,2.17
2023-04-03T00:07:51.881Z,2.40
2023-04-03T00:08:53.845Z,2.00
2023-04-03T00:09:55.485Z,2.20
2023-04-03T00:10:57.502Z,2.10
2023-04-03T00:11:59.055Z,2.20
2023-04-03T00:13:00.639Z,2.13
2023-04-03T00:14:02.174Z,2.07
2023-04-03T00:15:03.983Z,2.13
2023-04-03T00:16:06.448Z,2.20
2023-04-03T00:17:08.131Z,3.00
2023-04-03T00:18:10.149Z,2.10
2023-04-03T00:19:13.004Z,2.60
2023-04-03T00:20:14.584Z,2.50
2023-04-03T00:21:16.625Z,2.43
2023-04-03T00:22:18.160Z,2.30
2023-04-03T00:23:19.740Z,2.30
2023-04-03T00:24:21.286Z,2.43
2023-04-03T00:25:23.142Z,2.60
2023-04-03T00:26:24.688Z,2.30
2023-04-03T00:27:26.244Z,2.50
2023-04-03T00:28:27.920Z,2.60
2023-04-03T00:29:29.463Z,2.40
2023-04-03T00:30:31.541Z,2.93
2023-04-03T00:31:33.224Z,2.40
2023-04-03T00:32:35.347Z,2.70
2023-04-03T00:33:36.883Z,3.23
2023-04-03T00:34:38.443Z,2.63
2023-04-03T00:35:40.519Z,2.53
2023-04-03T00:36:42.305Z,2.80
2023-04-03T00:37:44.249Z,2.60
2023-04-03T00:38:46.011Z,2.87
2023-04-03T00:39:47.585Z,2.77
2023-04-03T00:40:50.499Z,2.83
2023-04-03T00:41:52.190Z,2.70
2023-04-03T00:42:58.612Z,2.90
2023-04-03T00:44:00.253Z,3.00
2023-04-03T00:45:01.884Z,2.90
2023-04-03T00:46:04.017Z,2.90
2023-04-03T00:47:09.504Z,2.90
2023-04-03T00:48:14.794Z,2.50
2023-04-03T00:49:16.408Z,2.17
2023-04-03T00:50:18.777Z,2.53
2023-04-03T00:51:27.810Z,2.60
2023-04-03T00:52:31.747Z,2.47
2023-04-03T00:53:39.826Z,2.77
2023-04-03T00:54:43.104Z,2.13
2023-04-03T00:55:47.445Z,2.40
2023-04-03T00:56:50.833Z,2.23
2023-04-03T00:57:53.432Z,2.40
2023-04-03T00:59:07.089Z,1.90
2023-04-03T01:00:12.551Z,1.90
2023-04-03T01:01:19.555Z,1.80
2023-04-03T01:02:21.288Z,1.67
2023-04-03T01:03:23.204Z,1.80
2023-04-03T01:04:32.238Z,1.83
2023-04-03T01:05:34.039Z,1.90
2023-04-03T01:06:38.172Z,2.00
2023-04-03T01:07:40.772Z,2.03
2023-04-03T01:08:42.848Z,1.70
2023-04-03T01:09:47.849Z,1.97
2023-04-03T01:10:49.417Z,2.07
2023-04-03T01:11:51.148Z,2.13
2023-04-03T01:12:53.381Z,2.10
2023-04-03T01:13:55.421Z,2.00
2023-04-03T01:15:02.865Z,1.87
2023-04-03T01:16:06.456Z,2.20
2023-04-03T01:17:46.684Z,1.83
2023-04-03T01:18:48.424Z,2.20
2023-04-03T01:20:12.036Z,2.30
2023-04-03T01:21:57.084Z,1.73
2023-04-03T01:23:10.988Z,1.83
2023-04-03T01:24:23.760Z,2.10
2023-04-03T01:25:25.758Z,1.80
2023-04-03T01:26:29.313Z,2.23
2023-04-03T01:27:30.986Z,2.03
2023-04-03T01:28:36.593Z,1.60
2023-04-03T01:29:38.752Z,1.80
2023-04-03T01:30:51.744Z,2.40
2023-04-03T01:31:56.462Z,2.20
2023-04-03T01:32:58.484Z,1.90
2023-04-03T01:34:00.368Z,2.03
2023-04-03T01:35:01.973Z,1.90
2023-04-03T01:36:04.288Z,2.10
2023-04-03T01:37:06.050Z,2.13
2023-04-03T01:38:07.966Z,3.00
2023-04-03T01:39:09.755Z,2.60
2023-04-03T01:40:11.706Z,2.60
2023-04-03T01:41:13.403Z,2.80
2023-04-03T01:42:14.969Z,2.60
2023-04-03T01:43:16.493Z,2.63
2023-04-03T01:44:18.184Z,2.50
2023-04-03T01:45:19.748Z,2.63
2023-04-03T01:46:21.657Z,2.10
2023-04-03T01:47:23.713Z,2.10
2023-04-03T01:48:25.353Z,2.50
2023-04-03T01:49:26.995Z,2.33
2023-04-03T01:50:28.537Z,2.97
2023-04-03T01:51:30.475Z,2.20
2023-04-03T01:52:32.009Z,2.57
2023-04-03T01:53:33.734Z,2.50
2023-04-03T01:54:35.269Z,2.77
2023-04-03T01:55:36.826Z,2.60
2023-04-03T01:56:40.145Z,2.70
2023-04-03T01:57:41.812Z,2.97
2023-04-03T01:58:43.365Z,2.57
2023-04-03T01:59:44.966Z,2.60
2023-04-03T02:00:46.758Z,2.13
2023-04-03T02:01:48.398Z,2.33
2023-04-03T02:02:49.988Z,2.70
2023-04-03T02:03:51.847Z,2.60
2023-04-03T02:04:53.420Z,3.03
2023-04-03T02:05:55.000Z,2.70
2023-04-03T02:06:56.635Z,2.60
2023-04-03T02:07:58.135Z,2.63
2023-04-03T02:08:59.658Z,2.90
2023-04-03T02:10:01.266Z,2.80
2023-04-03T02:11:02.785Z,2.60
2023-04-03T02:12:04.429Z,2.63
2023-04-03T02:13:06.445Z,2.67
2023-04-03T02:14:08.134Z,2.73
2023-04-03T02:15:10.272Z,2.87
2023-04-03T02:16:12.496Z,2.20
2023-04-03T02:17:14.178Z,2.43
2023-04-03T02:18:16.242Z,2.40
2023-04-03T02:19:17.769Z,2.67
2023-04-03T02:20:19.726Z,2.40
2023-04-03T02:21:21.569Z,2.73
2023-04-03T02:22:23.112Z,2.47
2023-04-03T02:23:24.623Z,2.20
2023-04-03T02:24:26.274Z,2.37
2023-04-03T02:25:28.254Z,2.90
2023-04-03T02:26:29.769Z,2.43
2023-04-03T02:27:32.745Z,2.43
2023-04-03T02:28:35.316Z,2.63
2023-04-03T02:29:36.964Z,2.37
2023-04-03T02:30:38.833Z,2.33
2023-04-03T02:31:40.542Z,2.43
2023-04-03T02:32:43.434Z,2.40
2023-04-03T02:33:45.118Z,2.10
2023-04-03T02:34:46.633Z,2.47
2023-04-03T02:35:54.180Z,2.70
2023-04-03T02:36:55.883Z,3.70
2023-04-03T02:37:57.632Z,3.30
2023-04-03T02:38:59.226Z,3.23
2023-04-03T02:40:00.955Z,2.93
2023-04-03T02:41:08.925Z,3.07
2023-04-03T02:42:10.837Z,3.20
2023-04-03T02:43:12.408Z,3.00
2023-04-03T02:44:14.202Z,4.00
2023-04-03T02:45:15.975Z,4.40
2023-04-03T02:46:17.552Z,3.83
2023-04-03T02:47:19.131Z,3.77
2023-04-03T02:48:20.689Z,3.90
2023-04-03T02:49:22.466Z,3.70
2023-04-03T02:50:23.970Z,3.93
2023-04-03T02:51:25.867Z,4.40
2023-04-03T02:52:27.402Z,3.87
2023-04-03T02:53:28.973Z,4.20
2023-04-03T02:54:31.614Z,3.60
2023-04-03T02:55:33.252Z,3.47
2023-04-03T02:56:35.351Z,3.27
2023-04-03T02:57:36.895Z,3.57
2023-04-03T02:58:38.500Z,3.00
2023-04-03T02:59:42.961Z,2.80
2023-04-03T03:00:44.533Z,3.67
2023-04-03T03:01:46.374Z,3.60
2023-04-03T03:02:50.259Z,3.37
2023-04-03T03:03:51.826Z,3.13
2023-04-03T03:04:53.418Z,3.37
2023-04-03T03:06:10.691Z,3.10
2023-04-03T03:07:12.256Z,3.30
2023-04-03T03:08:13.736Z,3.03
2023-04-03T03:09:15.728Z,3.27
2023-04-03T03:10:17.554Z,2.93
2023-04-03T03:11:19.412Z,3.27
2023-04-03T03:12:22.834Z,3.53
2023-04-03T03:13:25.588Z,3.90
2023-04-03T03:14:27.168Z,3.87
2023-04-03T03:15:28.722Z,3.90
2023-04-03T03:16:30.525Z,4.10
2023-04-03T03:17:32.139Z,4.40
2023-04-03T03:18:34.040Z,4.03
2023-04-03T03:19:35.754Z,4.67
2023-04-03T03:20:37.558Z,4.20
2023-04-03T03:21:39.504Z,4.10
2023-04-03T03:22:41.048Z,4.10
2023-04-03T03:23:42.549Z,4.70
2023-04-03T03:24:44.120Z,4.23
2023-04-03T03:25:45.989Z,3.93
2023-04-03T03:26:47.542Z,3.90
2023-04-03T03:27:49.073Z,4.00
2023-04-03T03:28:50.801Z,4.00
2023-04-03T03:29:52.307Z,4.27
2023-04-03T03:30:54.074Z,3.90
2023-04-03T03:31:55.756Z,3.73
2023-04-03T03:32:57.426Z,3.67
2023-04-03T03:33:58.948Z,3.37
2023-04-03T03:35:00.765Z,4.20
2023-04-03T03:36:02.528Z,3.90
2023-04-03T03:37:04.200Z,3.73
2023-04-03T03:38:05.716Z,3.47
2023-04-03T03:39:07.358Z,3.80
2023-04-03T03:40:09.690Z,3.63
2023-04-03T03:41:11.321Z,3.93
2023-04-03T03:42:12.971Z,3.77
2023-04-03T03:43:14.505Z,3.90
2023-04-03T03:44:16.318Z,3.57
2023-04-03T03:45:17.912Z,3.40
2023-04-03T03:46:19.482Z,3.50
2023-04-03T03:47:21.267Z,3.17
2023-04-03T03:48:24.527Z,3.70
2023-04-03T03:49:26.431Z,3.37
2023-04-03T03:50:28.056Z,3.53
2023-04-03T03:51:29.570Z,3.23
2023-04-03T03:52:31.273Z,3.57
2023-04-03T03:53:32.825Z,3.33
2023-04-03T03:54:34.356Z,3.80
2023-04-03T03:55:36.331Z,3.73
2023-04-03T03:56:38.101Z,3.53
2023-04-03T03:57:39.690Z,3.80
2023-04-03T03:58:41.214Z,4.37
2023-04-03T03:59:42.948Z,3.53
2023-04-03T04:00:44.651Z,3.77
2023-04-03T04:01:46.244Z,3.30
2023-04-03T04:02:48.039Z,3.57
2023-04-03T04:03:49.945Z,3.63
2023-04-03T04:04:51.750Z,3.53
2023-04-03T04:05:53.367Z,3.57
2023-04-03T04:06:55.106Z,3.30
2023-04-03T04:07:56.692Z,3.13
2023-04-03T04:08:58.264Z,3.30
2023-04-03T04:09:59.844Z,3.40
2023-04-03T04:11:01.478Z,3.43
2023-04-03T04:12:02.986Z,3.60
2023-04-03T04:13:04.727Z,3.60
2023-04-03T04:14:06.651Z,3.30
2023-04-03T04:15:08.800Z,3.37
2023-04-03T04:16:10.913Z,3.43
2023-04-03T04:17:12.443Z,3.33
2023-04-03T04:18:13.980Z,3.27
2023-04-03T04:19:15.858Z,3.17
2023-04-03T04:20:17.456Z,3.20
2023-04-03T04:21:19.032Z,2.97
2023-04-03T04:22:20.775Z,3.57
2023-04-03T04:23:22.340Z,3.10
2023-04-03T04:24:23.906Z,3.33
2023-04-03T04:25:25.484Z,3.23
2023-04-03T04:26:27.205Z,3.30
2023-04-03T04:27:28.884Z,3.10
2023-04-03T04:28:30.463Z,3.80
2023-04-03T04:29:36.611Z,3.50
2023-04-03T04:30:38.377Z,3.50
2023-04-03T04:31:39.950Z,3.50
2023-04-03T04:32:41.856Z,3.80
2023-04-03T04:33:43.441Z,3.00
2023-04-03T04:34:44.991Z,3.17
2023-04-03T04:35:48.957Z,3.10
2023-04-03T04:36:50.674Z,2.87
2023-04-03T04:37:52.459Z,3.77
2023-04-03T04:38:54.105Z,2.97
2023-04-03T04:39:55.699Z,3.30
2023-04-03T04:40:57.219Z,3.03
2023-04-03T04:41:58.789Z,3.00
2023-04-03T04:43:00.429Z,2.90
2023-04-03T04:44:02.016Z,2.70
2023-04-03T04:45:03.885Z,2.57
2023-04-03T04:46:07.834Z,3.00
2023-04-03T04:47:09.474Z,2.60
2023-04-03T04:48:11.129Z,3.00
2023-04-03T04:49:12.839Z,2.70
2023-04-03T04:50:14.511Z,3.53
2023-04-03T04:51:16.603Z,3.90
2023-04-03T04:52:18.147Z,4.07
2023-04-03T04:53:19.704Z,4.07
2023-04-03T04:54:21.466Z,4.10
2023-04-03T04:55:23.036Z,4.20
2023-04-03T04:56:24.567Z,3.30
2023-04-03T04:57:26.287Z,4.10
2023-04-03T04:58:27.954Z,4.07
2023-04-03T04:59:29.503Z,3.80
2023-04-03T05:00:31.126Z,4.13
2023-04-03T05:01:32.676Z,3.73
2023-04-03T05:02:34.346Z,3.53
2023-04-03T05:03:35.970Z,3.70
2023-04-03T05:04:37.530Z,3.63
2023-04-03T05:05:39.716Z,3.07
2023-04-03T05:06:41.898Z,2.93
2023-04-03T05:07:43.426Z,2.77
2023-04-03T05:08:44.984Z,3.00
2023-04-03T05:09:46.544Z,3.13
2023-04-03T05:10:48.514Z,3.70
2023-04-03T05:11:50.066Z,3.27
2023-04-03T05:12:51.708Z,3.03
2023-04-03T05:13:53.795Z,2.93
2023-04-03T05:14:55.411Z,2.90
2023-04-03T05:15:56.968Z,2.77
2023-04-03T05:16:59.131Z,3.37
2023-04-03T05:18:00.748Z,2.70
2023-04-03T05:19:02.327Z,2.63
2023-04-03T05:20:05.973Z,3.10
2023-04-03T05:21:07.479Z,3.20
2023-04-03T05:22:09.054Z,3.60
2023-04-03T05:23:11.777Z,3.10
2023-04-03T05:24:13.437Z,3.30
2023-04-03T05:25:15.009Z,3.43
2023-04-03T05:26:17.751Z,3.13
2023-04-03T05:27:19.247Z,3.27
2023-04-03T05:28:20.830Z,3.70
2023-04-03T05:29:22.669Z,3.40
2023-04-03T05:30:24.235Z,3.20
2023-04-03T05:31:25.985Z,3.77
2023-04-03T05:32:28.622Z,3.40
2023-04-03T05:33:30.380Z,3.40
2023-04-03T05:34:31.896Z,2.83
2023-04-03T05:35:33.503Z,3.07
2023-04-03T05:36:35.322Z,3.17
2023-04-03T05:37:37.644Z,3.10
2023-04-03T05:38:40.669Z,3.53
2023-04-03T05:39:42.514Z,3.10
2023-04-03T05:40:44.049Z,3.60
2023-04-03T05:41:45.771Z,3.20
2023-04-03T05:42:47.381Z,3.53
2023-04-03T05:43:49.044Z,3.37
2023-04-03T05:44:51.203Z,4.17
2023-04-03T05:45:53.681Z,4.30
2023-04-03T05:46:55.562Z,4.10
2023-04-03T05:47:57.162Z,4.20
2023-04-03T05:48:58.770Z,4.27
2023-04-03T05:50:00.348Z,4.30
2023-04-03T05:51:01.859Z,4.60
2023-04-03T05:52:03.493Z,5.20
2023-04-03T05:53:05.205Z,5.23
2023-04-03T05:54:15.120Z,4.77
2023-04-03T05:55:16.960Z,4.70
2023-04-03T05:56:18.514Z,5.00
2023-04-03T05:57:20.651Z,6.27
2023-04-03T05:58:22.249Z,6.27
2023-04-03T05:59:23.768Z,6.33
2023-04-03T06:00:25.762Z,6.87
2023-04-03T06:01:27.472Z,8.40
2023-04-03T06:02:29.096Z,10.43
2023-04-03T06:03:31.198Z,12.27
2023-04-03T06:04:32.878Z,11.87
2023-04-03T06:05:34.453Z,12.60
2023-04-03T06:06:54.116Z,11.43
2023-04-03T06:07:56.107Z,10.23
2023-04-03T06:08:57.746Z,10.07
2023-04-03T06:09:59.336Z,9.27
2023-04-03T06:11:00.956Z,9.63
2023-04-03T06:12:02.995Z,8.67
2023-04-03T06:13:04.628Z,8.73
2023-04-03T06:14:06.137Z,7.50
2023-04-03T06:15:09.242Z,7.80
2023-04-03T06:16:16.382Z,7.30
2023-04-03T06:17:19.560Z,5.97
2023-04-03T06:18:21.592Z,6.70
2023-04-03T06:19:23.342Z,7.10
2023-04-03T06:20:25.147Z,7.03
2023-04-03T06:21:27.669Z,6.93
2023-04-03T06:22:30.918Z,7.77
2023-04-03T06:23:33.776Z,6.57
2023-04-03T06:24:36.521Z,6.47
2023-04-03T06:25:38.234Z,6.37
2023-04-03T06:26:39.791Z,6.23
2023-04-03T06:27:41.538Z,6.30
2023-04-03T06:28:43.090Z,6.00
2023-04-03T06:29:46.273Z,6.20
2023-04-03T06:30:47.883Z,6.40
2023-04-03T06:31:50.281Z,6.37
2023-04-03T06:32:52.114Z,6.27
2023-04-03T06:33:53.682Z,6.70
2023-04-03T06:34:55.482Z,6.50
2023-04-03T06:35:59.120Z,6.93
2023-04-03T06:37:01.385Z,6.63
2023-04-03T06:38:05.508Z,6.17
2023-04-03T06:39:08.018Z,7.00
2023-04-03T06:40:20.873Z,7.23
2023-04-03T06:41:22.448Z,6.87
2023-04-03T06:42:24.829Z,6.93
2023-04-03T06:43:27.095Z,6.93
2023-04-03T06:44:28.672Z,6.90
2023-04-03T06:45:30.199Z,6.63
2023-04-03T06:46:31.841Z,7.47
2023-04-03T06:47:33.461Z,6.33
2023-04-03T06:48:35.043Z,6.60
2023-04-03T06:49:38.062Z,5.93
2023-04-03T06:50:40.110Z,5.87
2023-04-03T06:51:41.687Z,6.17
2023-04-03T06:52:43.489Z,6.57
2023-04-03T06:53:45.599Z,6.43
2023-04-03T06:54:48.277Z,6.27
2023-04-03T06:55:49.815Z,6.63
2023-04-03T06:56:52.101Z,6.10
2023-04-03T06:57:53.675Z,6.63
2023-04-03T06:58:58.530Z,5.90
2023-04-03T07:00:00.153Z,6.07
2023-04-03T07:01:01.997Z,5.80
2023-04-03T07:02:04.047Z,5.00
2023-04-03T07:03:05.877Z,4.63
2023-04-03T07:04:08.665Z,4.50
2023-04-03T07:05:10.640Z,4.73
2023-04-03T07:06:13.932Z,4.70
2023-04-03T07:07:15.969Z,5.80
2023-04-03T07:08:17.570Z,5.47
2023-04-03T07:09:19.539Z,5.03
2023-04-03T07:10:21.558Z,5.50
2023-04-03T07:11:23.701Z,5.07
2023-04-03T07:12:25.280Z,6.10
2023-04-03T07:13:27.531Z,4.97
2023-04-03T07:14:29.076Z,5.70
2023-04-03T07:15:31.170Z,6.03
2023-04-03T07:16:33.073Z,5.73
2023-04-03T07:17:34.815Z,6.30
2023-04-03T07:18:36.525Z,6.37
2023-04-03T07:19:38.083Z,6.60
2023-04-03T07:20:40.177Z,6.93
2023-04-03T07:21:42.973Z,6.33
2023-04-03T07:22:44.576Z,7.50
2023-04-03T07:23:46.236Z,6.80
2023-04-03T07:24:47.758Z,7.93
2023-04-03T07:25:51.156Z,8.10
2023-04-03T07:26:55.693Z,8.23
2023-04-03T07:27:57.371Z,8.07
2023-04-03T07:28:58.915Z,8.37
2023-04-03T07:30:00.446Z,7.73
2023-04-03T07:31:07.268Z,8.07
2023-04-03T07:32:08.820Z,7.97
2023-04-03T07:33:10.394Z,8.67
2023-04-03T07:34:12.297Z,8.03
2023-04-03T07:35:14.101Z,8.77
2023-04-03T07:36:19.214Z,8.93
2023-04-03T07:37:21.538Z,9.70
2023-04-03T07:38:23.520Z,9.53
2023-04-03T07:39:25.313Z,8.73
2023-04-03T07:40:26.870Z,8.90
2023-04-03T07:41:29.627Z,8.50
2023-04-03T07:42:31.451Z,6.60
2023-04-03T07:43:33.894Z,7.67
2023-04-03T07:44:36.462Z,6.17
2023-04-03T07:45:38.282Z,6.83
2023-04-03T07:46:40.145Z,7.53
2023-04-03T07:47:41.880Z,7.63
2023-04-03T07:48:43.584Z,7.97
2023-04-03T07:49:45.497Z,6.73
2023-04-03T07:50:47.322Z,6.60
2023-04-03T07:51:49.588Z,6.20
2023-04-03T07:52:51.849Z,6.37
2023-04-03T07:53:53.524Z,6.27
2023-04-03T07:54:55.063Z,6.87
2023-04-03T07:55:58.220Z,5.40
2023-04-03T07:56:59.879Z,5.70
2023-04-03T07:58:01.456Z,5.93
2023-04-03T07:59:03.421Z,6.07
2023-04-03T08:00:06.390Z,4.43
2023-04-03T08:01:08.283Z,4.57
2023-04-03T08:02:13.674Z,5.00
2023-04-03T08:03:17.660Z,4.50
2023-04-03T08:04:19.517Z,4.67
2023-04-03T08:05:22.350Z,4.47
2023-04-03T08:06:37.468Z,4.00
2023-04-03T08:07:44.211Z,3.47
2023-04-03T08:08:46.767Z,3.80
2023-04-03T08:09:48.317Z,4.07
2023-04-03T08:10:51.786Z,3.40
2023-04-03T08:11:54.478Z,3.67
2023-04-03T08:12:56.030Z,3.70
2023-04-03T08:13:58.148Z,2.83
2023-04-03T08:15:01.632Z,2.83
2023-04-03T08:16:16.900Z,3.17
2023-04-03T08:17:18.480Z,3.13
2023-04-03T08:18:22.714Z,3.07
2023-04-03T08:19:26.605Z,3.10
2023-04-03T08:20:29.169Z,3.27
2023-04-03T08:21:30.868Z,3.30
2023-04-03T08:22:32.461Z,3.13
2023-04-03T08:23:34.021Z,2.70
2023-04-03T08:24:36.474Z,2.67
2023-04-03T08:25:43.319Z,2.80
2023-04-03T08:26:44.862Z,2.77
2023-04-03T08:27:46.513Z,3.03
2023-04-03T08:28:49.349Z,2.63
2023-04-03T08:29:51.418Z,3.00
2023-04-03T08:30:53.038Z,2.97
2023-04-03T08:31:54.879Z,2.73
2023-04-03T08:32:56.499Z,2.80
2023-04-03T08:33:59.084Z,2.80
2023-04-03T08:35:00.639Z,3.10
2023-04-03T08:36:02.734Z,3.00
2023-04-03T08:37:04.260Z,3.00
2023-04-03T08:38:05.846Z,3.30
2023-04-03T08:39:07.883Z,3.00
2023-04-03T08:40:15.736Z,2.83
2023-04-03T08:41:22.812Z,2.90
2023-04-03T08:43:05.197Z,2.90
2023-04-03T08:44:18.983Z,2.73
2023-04-03T08:45:34.501Z,2.80
2023-04-03T08:46:53.804Z,2.60
2023-04-03T08:48:15.559Z,2.73
2023-04-03T08:49:32.518Z,3.27
2023-04-03T08:50:41.792Z,3.10
2023-04-03T08:51:49.526Z,3.00
2023-04-03T08:52:54.931Z,3.13
2023-04-03T08:54:09.093Z,2.97
2023-04-03T08:55:32.972Z,3.33
2023-04-03T08:56:36.364Z,3.20
2023-04-03T08:57:43.689Z,3.20
2023-04-03T08:59:01.741Z,3.20
2023-04-03T09:00:19.279Z,3.03
2023-04-03T09:01:41.966Z,3.60
2023-04-03T09:02:52.639Z,4.00
2023-04-03T09:03:54.601Z,3.83
2023-04-03T09:04:56.686Z,4.03
2023-04-03T09:06:21.466Z,4.13
2023-04-03T09:07:34.077Z,3.80
2023-04-03T09:09:16.483Z,4.53
2023-04-03T09:10:28.322Z,4.17
2023-04-03T09:11:42.438Z,4.07
2023-04-03T09:12:50.935Z,4.50
2023-04-03T09:14:02.657Z,4.40
2023-04-03T09:15:14.361Z,4.70
2023-04-03T09:16:47.981Z,4.77
2023-04-03T09:18:08.390Z,5.43
2023-04-03T09:19:34.041Z,4.80
2023-04-03T09:21:09.179Z,4.90
2023-04-03T09:22:19.646Z,6.00
2023-04-03T09:23:30.576Z,5.90
2023-04-03T09:24:34.360Z,6.60
2023-04-03T09:25:38.452Z,5.97
2023-04-03T09:26:49.710Z,6.40
2023-04-03T09:27:52.504Z,6.37
2023-04-03T09:28:56.987Z,5.73
2023-04-03T09:29:59.104Z,6.10
2023-04-03T09:31:01.916Z,5.60
2023-04-03T09:32:26.291Z,5.90
2023-04-03T09:33:30.335Z,6.17
2023-04-03T09:34:36.210Z,6.10
2023-04-03T09:35:47.248Z,5.97
2023-04-03T09:36:49.936Z,5.50
2023-04-03T09:38:00.851Z,5.37
2023-04-03T09:39:06.918Z,5.50
2023-04-03T09:40:27.003Z,5.83
2023-04-03T09:41:29.382Z,5.87
2023-04-03T09:42:33.016Z,6.27
2023-04-03T09:43:39.631Z,6.50
2023-04-03T09:44:41.189Z,6.23
2023-04-03T09:45:43.101Z,6.10
2023-04-03T09:46:44.860Z,6.87
2023-04-03T09:47:46.729Z,6.27
2023-04-03T09:49:09.028Z,7.20
2023-04-03T09:50:14.962Z,6.13
2023-04-03T09:51:16.867Z,5.90
2023-04-03T09:52:25.485Z,5.77
2023-04-03T09:53:34.610Z,6.10
2023-04-03T09:54:41.115Z,6.53
2023-04-03T09:55:45.439Z,5.50
2023-04-03T09:56:51.730Z,5.80
2023-04-03T09:57:55.076Z,6.13
2023-04-03T09:58:59.706Z,5.90
2023-04-03T10:00:06.039Z,6.23
2023-04-03T10:01:24.059Z,5.53
2023-04-03T10:02:41.057Z,5.73
2023-04-03T10:03:47.637Z,5.23
2023-04-03T10:04:58.718Z,5.47
2023-04-03T10:06:25.039Z,5.60
2023-04-03T10:07:33.268Z,5.80
2023-04-03T10:08:36.147Z,6.03
2023-04-03T10:09:40.446Z,6.07
2023-04-03T10:10:49.738Z,5.73
2023-04-03T10:12:13.182Z,6.10
2023-04-03T10:13:22.328Z,6.83
2023-04-03T10:14:24.061Z,6.77
2023-04-03T10:15:29.551Z,6.90
2023-04-03T10:16:34.900Z,6.73
2023-04-03T10:17:48.948Z,6.80
2023-04-03T10:19:05.954Z,5.77
2023-04-03T10:20:34.560Z,6.13
2023-04-03T10:21:51.832Z,5.57
2023-04-03T10:23:18.929Z,5.50
2023-04-03T10:24:30.414Z,5.10
2023-04-03T10:25:59.815Z,5.60
2023-04-03T10:27:19.708Z,5.13
2023-04-03T10:28:24.851Z,4.87
2023-04-03T10:29:29.640Z,5.97
2023-04-03T10:30:52.950Z,6.17
2023-04-03T10:32:03.168Z,6.10
2023-04-03T10:33:26.537Z,6.07
2023-04-03T10:34:34.551Z,6.10
2023-04-03T10:36:10.164Z,6.43
2023-04-03T10:37:51.892Z,5.70
2023-04-03T10:39:29.459Z,6.37
2023-04-03T10:40:52.985Z,5.20
2023-04-03T10:42:00.719Z,5.30
2023-04-03T10:43:22.005Z,5.10
2023-04-03T10:44:39.138Z,5.13
2023-04-03T10:45:52.864Z,5.73
2023-04-03T10:47:05.055Z,5.60
2023-04-03T10:48:24.838Z,5.87
2023-04-03T10:49:57.055Z,5.27
2023-04-03T10:51:34.730Z,5.13
2023-04-03T10:52:58.303Z,4.50
2023-04-03T10:54:25.408Z,5.10
2023-04-03T10:55:27.310Z,5.10
2023-04-03T10:56:37.274Z,5.03
2023-04-03T10:57:39.097Z,5.13
2023-04-03T10:58:44.861Z,6.03
2023-04-03T10:59:55.111Z,6.00
2023-04-03T11:01:02.456Z,5.30
2023-04-03T11:02:08.580Z,6.63
2023-04-03T11:03:35.569Z,6.03
2023-04-03T11:04:40.628Z,6.10
2023-04-03T11:05:45.729Z,6.20
2023-04-03T11:06:58.842Z,4.83
2023-04-03T11:08:05.719Z,5.33
2023-04-03T11:09:32.335Z,4.90
2023-04-03T11:10:43.431Z,4.60
2023-04-03T11:11:45.658Z,4.13
2023-04-03T11:12:52.858Z,4.90
2023-04-03T11:14:06.592Z,4.37
2023-04-03T11:15:23.287Z,4.10
2023-04-03T11:16:28.270Z,4.33
2023-04-03T11:17:47.502Z,3.80
2023-04-03T11:19:01.048Z,3.63
2023-04-03T11:20:11.849Z,4.03
2023-04-03T11:21:44.201Z,3.53
2023-04-03T11:23:05.023Z,4.37
2023-04-03T11:24:31.199Z,3.80
2023-04-03T11:25:39.114Z,3.30
2023-04-03T11:26:43.369Z,3.47
2023-04-03T11:27:52.821Z,2.50
2023-04-03T11:29:00.648Z,3.00
2023-04-03T11:30:06.918Z,3.63
2023-04-03T11:31:14.183Z,3.30
2023-04-03T11:32:56.790Z,3.37
2023-04-03T11:34:09.184Z,3.13
2023-04-03T11:35:11.971Z,2.80
2023-04-03T11:36:30.337Z,3.10
2023-04-03T11:37:45.351Z,3.33
2023-04-03T11:38:50.166Z,3.73
2023-04-03T11:39:59.471Z,3.70
2023-04-03T11:41:01.493Z,3.20
2023-04-03T11:42:39.030Z,3.30
2023-04-03T11:44:25.960Z,3.40
2023-04-03T11:45:51.994Z,2.90
2023-04-03T11:46:58.150Z,3.63
2023-04-03T11:48:16.682Z,3.70
2023-04-03T11:50:00.865Z,3.60
2023-04-03T11:51:23.520Z,3.80
2023-04-03T11:52:43.744Z,3.33
2023-04-03T11:53:46.692Z,3.40
2023-04-03T11:54:49.542Z,3.60
2023-04-03T11:55:51.134Z,3.20
2023-04-03T11:56:52.841Z,3.07
2023-04-03T11:58:02.886Z,3.40
2023-04-03T11:59:14.494Z,3.57
2023-04-03T12:00:51.983Z,3.60
2023-04-03T12:01:53.719Z,3.40
2023-04-03T12:02:55.781Z,3.50
2023-04-03T12:04:05.975Z,3.53
2023-04-03T12:05:29.670Z,3.70
2023-04-03T12:06:34.041Z,3.60
2023-04-03T12:07:35.717Z,3.63
2023-04-03T12:08:40.322Z,3.67
2023-04-03T12:09:42.087Z,3.60
2023-04-03T12:10:43.713Z,3.80
2023-04-03T12:11:45.351Z,3.90
2023-04-03T12:12:58.594Z,4.57
2023-04-03T12:14:00.269Z,3.73
2023-04-03T12:15:44.093Z,3.90
2023-04-03T12:16:48.544Z,3.33
2023-04-03T12:17:51.751Z,3.63
2023-04-03T12:18:53.409Z,3.70
2023-04-03T12:19:55.144Z,3.20
2023-04-03T12:20:57.933Z,3.57
2023-04-03T12:22:00.293Z,3.40
2023-04-03T12:23:29.767Z,3.57
2023-04-03T12:24:33.608Z,3.43
2023-04-03T12:25:50.926Z,3.60
2023-04-03T12:26:59.272Z,3.50
2023-04-03T12:28:00.963Z,4.07
2023-04-03T12:29:17.020Z,3.73
2023-04-03T12:30:29.238Z,3.80
2023-04-03T12:31:42.518Z,4.43
2023-04-03T12:33:12.656Z,4.70
2023-04-03T12:34:36.433Z,4.50
2023-04-03T12:35:50.042Z,4.13
2023-04-03T12:37:01.684Z,4.40
2023-04-03T12:38:21.627Z,3.83
2023-04-03T12:39:43.882Z,3.70
2023-04-03T12:41:11.578Z,3.70
2023-04-03T12:42:25.995Z,4.57
2023-04-03T12:43:55.409Z,4.73
2023-04-03T12:45:11.642Z,5.00
2023-04-03T12:46:18.345Z,5.60
2023-04-03T12:47:28.405Z,4.93
2023-04-03T12:48:32.448Z,4.77
2023-04-03T12:49:39.287Z,5.67
2023-04-03T12:50:43.991Z,6.13
2023-04-03T12:51:48.040Z,6.67
2023-04-03T12:52:56.276Z,7.40
2023-04-03T12:54:03.693Z,7.60
2023-04-03T12:55:18.279Z,8.47
2023-04-03T12:56:32.940Z,9.77
2023-04-03T12:57:35.455Z,9.30
2023-04-03T12:58:37.090Z,9.50
2023-04-03T12:59:39.291Z,8.90
2023-04-03T13:00:41.018Z,8.50
2023-04-03T13:01:43.026Z,7.90
2023-04-03T13:02:47.547Z,6.77
2023-04-03T13:03:52.679Z,7.80
2023-04-03T13:04:58.903Z,7.10
2023-04-03T13:06:05.271Z,6.17
2023-04-03T13:07:07.017Z,6.37
2023-04-03T13:08:13.702Z,6.40
2023-04-03T13:09:27.421Z,6.10
2023-04-03T13:10:29.034Z,6.80
2023-04-03T13:11:41.378Z,7.20
2023-04-03T13:13:11.030Z,7.20
2023-04-03T13:14:38.856Z,7.53
2023-04-03T13:15:47.463Z,6.60
2023-04-03T13:17:07.929Z,6.37
2023-04-03T13:18:30.206Z,6.23
2023-04-03T13:19:32.435Z,7.40
2023-04-03T13:20:37.518Z,7.17
2023-04-03T13:21:39.402Z,7.37
2023-04-03T13:22:50.618Z,7.63
2023-04-03T13:24:07.148Z,7.23
2023-04-03T13:25:16.434Z,7.10
2023-04-03T13:26:21.111Z,7.33
2023-04-03T13:27:23.409Z,6.67
2023-04-03T13:28:25.954Z,5.80
2023-04-03T13:29:34.525Z,5.50
2023-04-03T13:30:40.141Z,4.90
2023-04-03T13:31:42.025Z,5.60
2023-04-03T13:32:45.101Z,6.00
2023-04-03T13:34:02.277Z,6.23
2023-04-03T13:35:17.621Z,7.17
2023-04-03T13:36:23.724Z,7.67
2023-04-03T13:37:34.061Z,7.90
2023-04-03T13:38:37.446Z,8.90
2023-04-03T13:39:40.324Z,9.23
2023-04-03T13:40:50.054Z,9.23
2023-04-03T13:41:54.926Z,8.67
2023-04-03T13:43:06.505Z,8.30
2023-04-03T13:44:23.179Z,7.80
2023-04-03T13:45:29.599Z,8.27
2023-04-03T13:46:32.179Z,8.03
2023-04-03T13:47:40.732Z,8.30
2023-04-03T13:48:52.142Z,8.43
2023-04-03T13:50:16.939Z,8.30
2023-04-03T13:51:25.663Z,9.67
2023-04-03T13:52:51.271Z,8.90
2023-04-03T13:54:02.101Z,8.83
2023-04-03T13:55:25.798Z,9.17
2023-04-03T13:56:38.351Z,10.23
2023-04-03T13:58:00.324Z,9.37
2023-04-03T13:59:22.258Z,9.53
2023-04-03T14:00:29.892Z,9.40
2023-04-03T14:02:07.791Z,10.13
2023-04-03T14:03:23.578Z,7.87
2023-04-03T14:04:29.189Z,7.27
2023-04-03T14:05:31.414Z,6.50
2023-04-03T14:06:33.079Z,6.20
2023-04-03T14:07:35.355Z,6.07
2023-04-03T14:08:42.891Z,6.40
2023-04-03T14:09:47.199Z,6.63
2023-04-03T14:10:50.848Z,6.37
2023-04-03T14:11:56.791Z,6.70
2023-04-03T14:12:58.486Z,6.57
2023-04-03T14:14:05.724Z,7.33
2023-04-03T14:15:29.192Z,7.13
2023-04-03T14:16:33.331Z,7.00
2023-04-03T14:17:35.040Z,7.20
2023-04-03T14:18:38.310Z,7.50
2023-04-03T14:19:39.951Z,7.03
2023-04-03T14:20:41.571Z,6.67
2023-04-03T14:21:43.162Z,6.80
2023-04-03T14:22:45.245Z,6.80
2023-04-03T14:23:47.230Z,6.67
2023-04-03T14:24:49.289Z,7.50
2023-04-03T14:25:50.899Z,7.40
2023-04-03T14:26:54.324Z,6.57
2023-04-03T14:27:56.152Z,6.37
2023-04-03T14:28:58.152Z,6.90
2023-04-03T14:30:00.524Z,6.90
2023-04-03T14:31:02.150Z,6.70
2023-04-03T14:32:14.254Z,5.80
2023-04-03T14:33:20.066Z,5.23
2023-04-03T14:34:21.630Z,4.90
2023-04-03T14:35:24.312Z,5.47
2023-04-03T14:36:28.201Z,5.27
2023-04-03T14:37:31.810Z,5.67
2023-04-03T14:38:33.446Z,4.50